createdAt,value
2018-10-19T00:02:12.522Z,80.70
2018-10-19T00:04:42.325Z,80.70
2018-10-19T00:07:12.242Z,80.80
2018-10-19T00:09:42.170Z,81.00
2018-10-19T00:12:11.898Z,81.20
2018-10-19T00:14:41.774Z,81.30
2018-10-19T00:17:11.831Z,81.40
2018-10-19T00:19:41.600Z,81.50
2018-10-19T00:22:11.533Z,81.60
2018-10-19T00:24:41.310Z,81.80
2018-10-19T00:27:11.104Z,81.90
2018-10-19T00:29:41.209Z,82.00
2018-10-19T00:32:11.056Z,82.10
2018-10-19T00:34:41.010Z,82.30
2018-10-19T00:37:10.890Z,82.30
2018-10-19T00:39:40.808Z,82.40
2018-10-19T00:42:10.755Z,82.50
2018-10-19T00:44:40.666Z,82.70
2018-10-19T00:47:10.554Z,83.60
2018-10-19T00:49:40.547Z,82.90
2018-10-19T00:52:10.493Z,83.10
2018-10-19T00:54:40.363Z,83.30
2018-10-19T00:57:10.327Z,83.40
2018-10-19T00:59:40.086Z,83.40
2018-10-19T01:02:10.024Z,83.50
2018-10-19T01:04:39.823Z,83.60
2018-10-19T01:07:09.624Z,83.70
2018-10-19T01:09:39.458Z,83.90
2018-10-19T01:12:09.258Z,83.80
2018-10-19T01:14:39.083Z,84.00
2018-10-19T01:17:08.964Z,84.10
2018-10-19T01:19:38.805Z,84.30
2018-10-19T01:22:08.578Z,84.40
2018-10-19T01:24:38.588Z,84.50
2018-10-19T01:27:08.535Z,84.60
2018-10-19T01:29:38.366Z,84.80
2018-10-19T01:32:08.198Z,85.00
2018-10-19T01:34:38.087Z,85.10
2018-10-19T01:37:07.898Z,85.20
2018-10-19T01:39:37.731Z,85.30
2018-10-19T01:42:07.659Z,85.40
2018-10-19T01:44:37.565Z,85.40
2018-10-19T01:47:07.018Z,85.50
2018-10-19T01:49:36.760Z,85.60
2018-10-19T01:52:07.183Z,85.70
2018-10-19T01:54:37.066Z,85.80
2018-10-19T01:57:07.104Z,85.90
2018-10-19T01:59:36.969Z,86.70
2018-10-19T02:02:07.379Z,85.90
2018-10-19T02:04:37.203Z,86.10
2018-10-19T02:07:07.189Z,86.10
2018-10-19T02:09:37.025Z,86.10
2018-10-19T02:12:07.199Z,86.50
2018-10-19T02:14:37.127Z,86.10
2018-10-19T02:17:07.365Z,86.20
2018-10-19T02:19:37.629Z,86.20
2018-10-19T02:22:08.065Z,86.20
2018-10-19T02:24:37.887Z,86.20
2018-10-19T02:27:08.501Z,86.20
2018-10-19T02:29:38.513Z,86.30
2018-10-19T02:32:08.417Z,86.40
2018-10-19T02:34:38.445Z,86.40
2018-10-19T02:37:08.669Z,86.40
2018-10-19T02:39:38.564Z,86.50
2018-10-19T02:42:08.660Z,86.50
2018-10-19T02:44:38.489Z,86.60
2018-10-19T02:47:08.320Z,86.60
2018-10-19T02:49:38.230Z,86.70
2018-10-19T02:52:08.098Z,86.60
2018-10-19T02:54:37.913Z,86.60
2018-10-19T02:57:08.143Z,86.60
2018-10-19T02:59:37.901Z,86.60
2018-10-19T03:02:08.049Z,87.50
2018-10-19T03:04:38.099Z,86.70
2018-10-19T03:07:08.411Z,86.70
2018-10-19T03:09:38.433Z,87.50
2018-10-19T03:12:08.401Z,86.70
2018-10-19T03:14:38.206Z,86.90
2018-10-19T03:17:08.199Z,86.90
2018-10-19T03:19:38.041Z,87.10
2018-10-19T03:22:08.587Z,87.00
2018-10-19T03:24:38.601Z,87.10
2018-10-19T03:27:09.454Z,87.10
2018-10-19T03:29:39.313Z,87.20
2018-10-19T03:32:09.255Z,87.30
2018-10-19T03:34:39.075Z,87.30
2018-10-19T03:37:08.911Z,87.30
2018-10-19T03:39:38.811Z,87.30
2018-10-19T03:42:08.699Z,87.20
2018-10-19T03:44:38.565Z,87.20
2018-10-19T03:47:08.448Z,87.30
2018-10-19T03:49:38.192Z,87.20
2018-10-19T03:52:08.081Z,87.30
2018-10-19T03:54:37.890Z,87.30
2018-10-19T03:57:07.935Z,87.20
2018-10-19T03:59:37.570Z,87.20
2018-10-19T04:02:07.414Z,87.10
2018-10-19T04:04:37.244Z,87.10
2018-10-19T04:07:07.111Z,87.10
2018-10-19T04:09:36.936Z,87.10
2018-10-19T04:12:07.306Z,87.10
2018-10-19T04:14:37.164Z,87.10
2018-10-19T04:17:07.106Z,87.00
2018-10-19T04:19:36.926Z,87.00
2018-10-19T04:22:06.850Z,87.00
2018-10-19T04:24:36.643Z,87.00
2018-10-19T04:27:06.692Z,87.10
2018-10-19T04:29:36.480Z,87.10
2018-10-19T04:32:06.570Z,87.10
2018-10-19T04:34:36.486Z,87.20
2018-10-19T04:37:07.216Z,87.20
2018-10-19T04:39:37.094Z,87.20
2018-10-19T04:42:07.130Z,87.20
2018-10-19T04:44:36.914Z,87.20
2018-10-19T04:47:07.353Z,87.20
2018-10-19T04:49:37.128Z,87.20
2018-10-19T04:52:07.130Z,87.20
2018-10-19T04:54:37.038Z,87.20
2018-10-19T04:57:07.302Z,87.30
2018-10-19T04:59:37.078Z,87.30
2018-10-19T05:02:07.023Z,87.30
2018-10-19T05:04:36.891Z,87.40
2018-10-19T05:07:06.761Z,87.40
2018-10-19T05:09:36.517Z,87.50
2018-10-19T05:12:06.446Z,87.40
2018-10-19T05:14:36.295Z,87.50
2018-10-19T05:17:06.582Z,88.30
2018-10-19T05:19:36.386Z,87.50
2018-10-19T05:22:06.722Z,88.10
2018-10-19T05:24:36.584Z,87.50
2018-10-19T05:27:06.770Z,87.50
2018-10-19T05:29:36.689Z,87.50
2018-10-19T05:32:06.795Z,87.60
2018-10-19T05:34:36.611Z,87.60
2018-10-19T05:37:06.810Z,87.70
2018-10-19T05:39:36.576Z,87.80
2018-10-19T05:42:06.919Z,87.80
2018-10-19T05:44:36.892Z,87.80
2018-10-19T05:47:07.112Z,87.80
2018-10-19T05:49:36.882Z,87.80
2018-10-19T05:52:06.730Z,87.90
2018-10-19T05:54:36.521Z,87.90
2018-10-19T05:57:06.927Z,87.80
2018-10-19T05:59:36.774Z,88.00
2018-10-19T06:02:07.365Z,88.00
2018-10-19T06:04:37.397Z,88.10
2018-10-19T06:07:07.406Z,88.20
2018-10-19T06:09:37.268Z,88.20
2018-10-19T06:12:08.101Z,88.30
2018-10-19T06:14:38.009Z,88.20
2018-10-19T06:17:08.138Z,88.20
2018-10-19T06:19:38.117Z,88.20
2018-10-19T06:22:11.444Z,88.20
2018-10-19T06:24:41.997Z,88.20
2018-10-19T06:27:13.667Z,88.20
2018-10-19T06:29:43.729Z,88.20
2018-10-19T06:32:14.715Z,88.20
2018-10-19T06:34:45.943Z,88.30
2018-10-19T06:37:16.472Z,88.20
2018-10-19T06:39:48.705Z,88.20
2018-10-19T06:42:20.471Z,88.10
2018-10-19T06:44:50.672Z,88.10
2018-10-19T06:47:22.212Z,88.10
2018-10-19T06:49:53.784Z,88.10
2018-10-19T06:52:25.829Z,88.20
2018-10-19T06:54:57.075Z,88.10
2018-10-19T06:57:29.403Z,88.10
2018-10-19T06:59:59.476Z,88.20
2018-10-19T07:02:29.488Z,88.20
2018-10-19T07:04:59.420Z,88.30
2018-10-19T07:07:29.290Z,88.30
2018-10-19T07:09:59.253Z,88.30
2018-10-19T07:12:29.201Z,88.30
2018-10-19T07:14:59.543Z,88.30
2018-10-19T07:17:29.464Z,88.30
2018-10-19T07:19:59.607Z,88.20
2018-10-19T07:22:40.106Z,88.10
2018-10-19T07:25:29.800Z,87.90
2018-10-19T07:27:59.816Z,87.80
2018-10-19T07:30:44.808Z,88.40
2018-10-19T07:33:14.656Z,87.70
2018-10-19T07:35:44.642Z,87.70
2018-10-19T07:38:14.699Z,87.80
2018-10-19T07:40:44.425Z,87.70
2018-10-19T07:43:14.353Z,87.70
2018-10-19T07:45:44.251Z,87.50
2018-10-19T07:48:14.271Z,87.40
2018-10-19T07:50:44.080Z,87.20
2018-10-19T07:53:13.962Z,87.00
2018-10-19T07:55:43.954Z,86.90
2018-10-19T07:58:13.958Z,86.90
2018-10-19T08:00:44.789Z,86.90
2018-10-19T08:03:14.599Z,86.90
2018-10-19T08:05:44.580Z,86.90
2018-10-19T08:08:14.531Z,86.80
2018-10-19T08:10:44.352Z,86.70
2018-10-19T08:13:14.289Z,86.70
2018-10-19T08:15:44.472Z,86.80
2018-10-19T08:18:14.388Z,86.70
2018-10-19T08:20:44.338Z,86.60
2018-10-19T08:23:14.427Z,86.40
2018-10-19T08:25:44.367Z,86.40
2018-10-19T08:28:14.217Z,86.10
2018-10-19T08:30:44.186Z,85.90
2018-10-19T08:33:14.135Z,86.10
2018-10-19T08:35:44.017Z,86.00
2018-10-19T08:38:14.293Z,85.90
2018-10-19T08:40:44.415Z,85.60
2018-10-19T08:43:14.351Z,85.60
2018-10-19T08:45:44.239Z,85.50
2018-10-19T08:48:14.044Z,85.30
2018-10-19T08:50:44.095Z,85.30
2018-10-19T08:53:13.996Z,85.00
2018-10-19T08:55:43.975Z,85.10
2018-10-19T08:58:13.984Z,85.20
2018-10-19T09:00:55.056Z,85.20
2018-10-19T09:03:24.923Z,85.20
2018-10-19T09:05:54.755Z,85.00
2018-10-19T09:08:24.683Z,84.60
2018-10-19T09:10:54.737Z,84.10
2018-10-19T09:13:24.954Z,83.60
2018-10-19T09:15:54.869Z,82.60
2018-10-19T09:18:24.688Z,82.40
2018-10-19T09:20:54.647Z,82.20
2018-10-19T09:23:24.379Z,82.10
2018-10-19T09:25:54.240Z,82.20
2018-10-19T09:28:24.262Z,81.70
2018-10-19T09:30:54.178Z,81.70
2018-10-19T09:33:24.114Z,81.60
2018-10-19T09:35:54.207Z,80.80
2018-10-19T09:38:24.094Z,80.20
2018-10-19T09:40:54.024Z,79.50
2018-10-19T09:43:23.980Z,79.70
2018-10-19T09:45:53.954Z,78.90
2018-10-19T09:48:23.828Z,79.00
2018-10-19T09:50:53.789Z,77.90
2018-10-19T09:53:23.693Z,77.50
2018-10-19T09:55:53.706Z,77.30
2018-10-19T09:58:23.723Z,77.00
2018-10-19T10:00:55.815Z,76.80
2018-10-19T10:03:26.008Z,76.10
2018-10-19T10:05:56.116Z,76.00
2018-10-19T10:08:26.010Z,75.60
2018-10-19T10:10:56.061Z,75.20
2018-10-19T10:13:25.952Z,74.80
2018-10-19T10:15:55.888Z,74.20
2018-10-19T10:18:25.865Z,74.50
2018-10-19T10:20:56.065Z,74.10
2018-10-19T10:23:25.954Z,73.10
2018-10-19T10:25:55.762Z,71.90
2018-10-19T10:28:26.179Z,71.20
2018-10-19T10:30:56.150Z,71.40
2018-10-19T10:33:26.255Z,71.90
2018-10-19T10:35:56.106Z,71.30
2018-10-19T10:38:26.144Z,72.20
2018-10-19T10:40:56.252Z,71.10
2018-10-19T10:43:26.346Z,70.00
2018-10-19T10:45:56.292Z,70.30
2018-10-19T10:48:26.343Z,70.10
2018-10-19T10:51:59.396Z,69.70
2018-10-19T10:54:29.325Z,68.50
2018-10-19T10:56:59.329Z,67.70
2018-10-19T10:59:29.267Z,67.40
2018-10-19T11:01:59.062Z,67.50
2018-10-19T11:04:29.203Z,67.40
2018-10-19T11:06:59.143Z,67.80
2018-10-19T11:09:29.069Z,66.90
2018-10-19T11:57:04.365Z,60.80
2018-10-19T12:05:34.798Z,59.70
2018-10-19T12:08:05.022Z,59.50
2018-10-19T12:10:35.050Z,59.50
2018-10-19T12:13:05.293Z,59.50
2018-10-19T12:15:35.448Z,59.40
2018-10-19T12:18:05.505Z,58.80
2018-10-19T12:20:35.429Z,58.50
2018-10-19T12:23:07.390Z,58.00
2018-10-19T12:25:37.352Z,57.90
2018-10-19T12:28:07.314Z,58.00
2018-10-19T12:30:38.091Z,58.00
2018-10-19T12:33:08.154Z,58.50
2018-10-19T12:35:38.116Z,57.90
2018-10-19T12:38:07.994Z,57.80
2018-10-19T12:40:37.915Z,57.60
2018-10-19T12:43:08.309Z,57.00
2018-10-19T12:46:53.374Z,57.10
2018-10-19T12:49:24.547Z,57.10
2018-10-19T12:51:54.587Z,57.40
2018-10-19T12:54:24.516Z,56.80
2018-10-19T12:56:54.453Z,56.70
2018-10-19T12:59:24.331Z,56.70
2018-10-19T13:01:54.291Z,57.00
2018-10-19T13:04:24.286Z,57.30
2018-10-19T13:06:54.554Z,57.20
2018-10-19T13:09:24.432Z,57.70
2018-10-19T13:11:54.427Z,57.40
2018-10-19T13:14:24.357Z,57.50
2018-10-19T13:16:54.273Z,57.80
2018-10-19T13:19:24.119Z,58.80
2018-10-19T13:21:54.055Z,58.30
2018-10-19T13:24:24.224Z,58.50
2018-10-19T13:26:54.375Z,58.70
2018-10-19T13:29:24.212Z,58.10
2018-10-19T13:31:54.158Z,57.70
2018-10-19T13:34:24.072Z,57.70
2018-10-19T13:36:54.032Z,57.50
2018-10-19T13:39:24.016Z,57.70
2018-10-19T13:41:53.859Z,58.00
2018-10-19T13:44:23.844Z,58.20
2018-10-19T13:46:54.219Z,58.60
2018-10-19T13:49:23.998Z,59.00
2018-10-19T13:51:53.904Z,59.30
2018-10-19T13:54:23.786Z,59.60
2018-10-19T13:56:53.779Z,59.90
2018-10-19T13:59:23.764Z,60.40
2018-10-19T14:01:53.862Z,60.80
2018-10-19T14:04:23.782Z,60.90
2018-10-19T14:06:53.827Z,61.30
2018-10-19T14:09:23.764Z,61.40
2018-10-19T14:11:53.733Z,61.40
2018-10-19T14:14:23.469Z,61.60
2018-10-19T14:16:53.369Z,62.10
2018-10-19T14:19:23.326Z,62.50
2018-10-19T14:21:53.100Z,62.40
2018-10-19T14:24:23.005Z,62.30
2018-10-19T14:26:53.024Z,62.20
2018-10-19T14:29:22.922Z,62.00
2018-10-19T14:31:52.693Z,62.90
2018-10-19T14:34:22.510Z,63.10
2018-10-19T14:36:52.357Z,63.10
2018-10-19T14:39:22.286Z,63.20
2018-10-19T14:41:52.204Z,62.80
2018-10-19T14:44:22.878Z,62.10
2018-10-19T14:46:53.145Z,61.50
2018-10-19T14:49:23.061Z,61.30
2018-10-19T14:51:52.866Z,61.20
2018-10-19T14:54:22.816Z,61.70
2018-10-19T14:56:52.648Z,60.80
2018-10-19T14:59:22.737Z,60.80
2018-10-19T15:01:53.638Z,60.90
2018-10-19T15:04:23.529Z,60.80
2018-10-19T15:06:53.391Z,59.80
2018-10-19T15:09:23.454Z,60.20
2018-10-19T15:11:53.268Z,59.70
2018-10-19T15:14:23.145Z,59.60
2018-10-19T15:16:53.135Z,60.00
2018-10-19T15:19:23.119Z,59.80
2018-10-19T15:21:53.032Z,59.90
2018-10-19T15:24:23.053Z,59.80
2018-10-19T15:26:53.045Z,59.50
2018-10-19T15:29:22.924Z,59.60
2018-10-19T15:31:53.133Z,59.80
2018-10-19T15:34:23.150Z,59.80
2018-10-19T15:36:53.095Z,60.10
2018-10-19T15:39:23.066Z,60.20
2018-10-19T15:41:52.885Z,60.40
2018-10-19T15:44:22.849Z,60.30
2018-10-19T15:46:52.794Z,60.60
2018-10-19T15:49:22.677Z,60.80
2018-10-19T15:51:52.566Z,61.20
2018-10-19T15:54:22.549Z,61.50
2018-10-19T15:56:52.597Z,61.70
2018-10-19T15:59:22.810Z,62.10
2018-10-19T16:01:52.756Z,62.30
2018-10-19T16:04:22.673Z,62.70
2018-10-19T16:06:52.656Z,62.90
2018-10-19T16:09:22.628Z,63.40
2018-10-19T16:11:52.715Z,63.50
2018-10-19T16:14:22.686Z,63.90
2018-10-19T16:16:54.054Z,64.20
2018-10-19T16:19:24.066Z,64.60
2018-10-19T16:21:54.139Z,64.90
2018-10-19T16:24:24.046Z,65.20
2018-10-19T16:26:54.116Z,65.70
2018-10-19T16:29:24.202Z,66.00
2018-10-19T16:31:54.174Z,66.30
2018-10-19T16:34:24.986Z,66.60
2018-10-19T16:36:55.318Z,66.90
2018-10-19T16:39:25.124Z,67.20
2018-10-19T16:41:55.129Z,67.50
2018-10-19T16:44:25.097Z,67.80
2018-10-19T16:46:55.107Z,67.90
2018-10-19T16:49:25.064Z,68.30
2018-10-19T16:51:55.028Z,68.50
2018-10-19T16:54:25.106Z,68.70
2018-10-19T16:56:54.958Z,68.90
2018-10-19T16:59:24.894Z,69.00
2018-10-19T17:01:54.794Z,69.20
2018-10-19T17:04:24.680Z,69.50
2018-10-19T17:06:54.430Z,69.60
2018-10-19T17:09:24.313Z,69.70
2018-10-19T17:11:54.381Z,70.00
2018-10-19T17:14:24.316Z,70.10
2018-10-19T17:16:54.182Z,70.40
2018-10-19T17:19:24.050Z,70.40
2018-10-19T17:21:53.843Z,70.50
2018-10-19T17:24:23.751Z,70.70
2018-10-19T17:26:53.610Z,70.70
2018-10-19T17:29:23.515Z,70.90
2018-10-19T17:31:53.399Z,71.00
2018-10-19T17:34:23.225Z,71.10
2018-10-19T17:36:53.215Z,71.10
2018-10-19T17:39:23.134Z,71.10
2018-10-19T17:41:53.071Z,71.30
2018-10-19T17:44:22.874Z,71.30
2018-10-19T17:46:53.072Z,71.40
2018-10-19T17:49:22.960Z,71.50
2018-10-19T17:51:52.894Z,71.60
2018-10-19T17:54:22.930Z,71.60
2018-10-19T17:56:52.822Z,71.70
2018-10-19T17:59:22.619Z,71.80
2018-10-19T18:01:52.686Z,71.80
2018-10-19T18:04:22.512Z,71.90
2018-10-19T18:06:52.463Z,72.20
2018-10-19T18:09:22.384Z,72.40
2018-10-19T18:11:52.150Z,72.30
2018-10-19T18:14:22.452Z,72.80
2018-10-19T18:16:52.581Z,72.90
2018-10-19T18:19:22.453Z,73.20
2018-10-19T18:21:52.691Z,73.30
2018-10-19T18:24:22.434Z,73.40
2018-10-19T18:26:52.283Z,73.60
2018-10-19T18:29:22.137Z,73.80
2018-10-19T18:31:51.983Z,74.00
2018-10-19T18:34:22.331Z,74.30
2018-10-19T18:36:52.290Z,74.60
2018-10-19T18:39:22.137Z,74.90
2018-10-19T18:41:52.555Z,75.80
2018-10-19T18:44:22.523Z,75.20
2018-10-19T18:46:52.509Z,75.30
2018-10-19T18:49:22.370Z,75.40
2018-10-19T18:51:52.442Z,75.40
2018-10-19T18:54:22.531Z,75.60
2018-10-19T18:56:52.608Z,75.60
2018-10-19T18:59:22.511Z,75.80
2018-10-19T19:01:52.327Z,76.00
2018-10-19T19:04:22.246Z,76.10
2018-10-19T19:06:52.310Z,76.90
2018-10-19T19:09:22.299Z,76.20
2018-10-19T19:11:52.156Z,76.30
2018-10-19T19:14:21.972Z,76.50
2018-10-19T19:16:51.878Z,76.80
2018-10-19T19:19:21.796Z,76.80
2018-10-19T19:21:51.784Z,77.60
2018-10-19T19:24:26.658Z,77.60
2018-10-19T19:26:56.601Z,77.50
2018-10-19T19:29:26.418Z,78.00
2018-10-19T19:31:56.443Z,78.00
2018-10-19T19:34:33.167Z,77.90
2018-10-19T19:37:03.038Z,78.10
2018-10-19T19:39:32.839Z,78.30
2018-10-19T19:42:07.788Z,78.60
2018-10-19T19:44:37.710Z,79.00
2018-10-19T19:47:10.278Z,79.10
2018-10-19T19:49:40.177Z,79.20
2018-10-19T19:52:10.056Z,79.20
2018-10-19T19:54:40.099Z,79.30
2018-10-19T19:57:10.131Z,79.50
2018-10-19T19:59:40.104Z,80.00
2018-10-19T20:02:10.121Z,80.50
2018-10-19T20:04:39.865Z,80.50
2018-10-19T20:07:09.796Z,80.50
2018-10-19T20:09:39.630Z,80.50
2018-10-19T20:12:09.642Z,80.80
2018-10-19T20:14:39.522Z,81.00
2018-10-19T20:17:09.566Z,81.00
2018-10-19T20:19:39.387Z,81.10
2018-10-19T20:22:09.154Z,81.30
2018-10-19T20:24:39.120Z,81.50
2018-10-19T20:27:09.098Z,81.60
2018-10-19T20:29:39.100Z,81.60
2018-10-19T20:32:08.985Z,82.00
2018-10-19T20:34:38.805Z,82.30
2018-10-19T20:37:09.033Z,82.50
2018-10-19T20:39:38.928Z,82.30
2018-10-19T20:42:08.812Z,82.30
2018-10-19T20:44:38.744Z,82.50
2018-10-19T20:47:08.638Z,82.60
2018-10-19T20:49:38.561Z,82.70
2018-10-19T20:52:08.379Z,82.50
2018-10-19T20:54:39.019Z,82.60
2018-10-19T20:57:09.025Z,82.80
2018-10-19T20:59:38.946Z,83.00
2018-10-19T21:02:09.208Z,83.30
2018-10-19T21:04:40.474Z,83.20
2018-10-19T21:07:10.311Z,83.40
2018-10-19T21:10:43.217Z,83.40
2018-10-19T21:13:13.362Z,83.50
2018-10-19T21:15:43.243Z,83.60
2018-10-19T21:18:13.177Z,83.80
2018-10-19T21:20:43.063Z,84.20
2018-10-19T21:23:13.133Z,84.10
2018-10-19T21:25:42.915Z,84.10
2018-10-19T21:28:12.893Z,84.10
2018-10-19T21:30:43.003Z,84.20
2018-10-19T21:33:12.873Z,84.10
2018-10-19T21:35:42.771Z,84.10
2018-10-19T21:38:12.722Z,84.10
2018-10-19T21:40:42.511Z,84.10
2018-10-19T21:43:12.404Z,84.20
2018-10-19T21:45:42.363Z,84.10
2018-10-19T21:48:12.159Z,84.20
2018-10-19T21:50:42.130Z,84.30
2018-10-19T21:53:12.078Z,84.40
2018-10-19T21:55:41.855Z,84.50
2018-10-19T21:58:11.679Z,85.00
2018-10-19T22:00:41.795Z,85.30
2018-10-19T22:03:11.778Z,85.20
2018-10-19T22:05:41.659Z,85.40
2018-10-19T22:08:11.529Z,85.60
2018-10-19T22:10:41.452Z,85.70
2018-10-19T22:13:11.627Z,86.60
2018-10-19T22:15:42.422Z,85.70
2018-10-19T22:18:12.258Z,85.70
2018-10-19T22:20:42.142Z,85.80
2018-10-19T22:23:12.182Z,85.90
2018-10-19T22:25:41.990Z,86.10
2018-10-19T22:28:12.019Z,86.30
2018-10-19T22:30:42.196Z,86.50
2018-10-19T22:33:12.154Z,86.70
2018-10-19T22:35:41.985Z,87.10
2018-10-19T22:38:11.876Z,87.20
2018-10-19T22:40:41.702Z,87.10
2018-10-19T22:43:11.641Z,87.00
2018-10-19T22:45:41.506Z,87.00
2018-10-19T22:48:11.345Z,87.10
2018-10-19T22:50:41.205Z,87.20
2018-10-19T22:53:11.452Z,87.30
2018-10-19T22:55:41.377Z,87.50
2018-10-19T22:58:11.291Z,87.40
2018-10-19T23:00:41.245Z,87.40
2018-10-19T23:03:11.153Z,87.50
2018-10-19T23:05:41.066Z,87.50
2018-10-19T23:08:10.981Z,87.50
2018-10-19T23:10:40.817Z,87.50
2018-10-19T23:13:10.897Z,87.40
2018-10-19T23:15:40.767Z,87.60
2018-10-19T23:18:10.779Z,87.90
2018-10-19T23:20:40.655Z,88.10
2018-10-19T23:23:10.613Z,88.00
2018-10-19T23:25:40.439Z,88.00
2018-10-19T23:28:10.303Z,88.20
2018-10-19T23:30:40.333Z,88.20
2018-10-19T23:33:10.340Z,88.10
2018-10-19T23:35:40.197Z,88.10
2018-10-19T23:38:10.219Z,88.10
2018-10-19T23:40:40.214Z,88.10
2018-10-19T23:43:10.342Z,88.10
2018-10-19T23:45:40.755Z,88.10
2018-10-19T23:48:10.593Z,88.00
2018-10-19T23:50:40.570Z,88.00
2018-10-19T23:53:10.432Z,87.90
2018-10-19T23:55:40.333Z,87.80
2018-10-19T23:58:10.241Z,87.90
